Time;durP1;ratioP1;P1;durP2;ratioP2;P2;SDS_P1;SDS_P2;PMS_P1;PMS_P2;Temp;Humidity;BMP_temperature;BMP_pressure;BME280_temperature;BME280_humidity;BME280_pressure;Samples;Min_cycle;Max_cycle;Signal;HPM_P1;HPM_P2
2022/08/22 00:01:48;;;;;;;10.73;4.50;;;16.10;66.40;;;;;;6229989;23;20433;-84
2022/08/22 00:04:44;;;;;;;9.63;4.70;;;16.00;66.50;;;;;;6226404;23;20440;-87
2022/08/22 00:10:30;;;;;;;10.63;5.30;;;16.00;69.20;;;;;;6217407;23;20461;-86
2022/08/22 00:16:14;;;;;;;9.40;4.97;;;15.90;71.10;;;;;;6218597;23;20416;-85
2022/08/22 00:19:06;;;;;;;10.43;5.40;;;15.80;70.80;;;;;;6218922;23;20428;-86
2022/08/22 00:21:53;;;;;;;11.00;5.00;;;15.70;70.00;;;;;;6220006;23;20396;-87
2022/08/22 00:24:31;;;;;;;8.20;4.83;;;15.70;71.60;;;;;;6226862;23;20433;-86
2022/08/22 00:27:11;;;;;;;10.40;5.30;;;15.50;73.00;;;;;;6225755;23;20419;-86
2022/08/22 00:29:56;;;;;;;10.50;4.53;;;15.50;74.10;;;;;;6229060;23;20512;-85
2022/08/22 00:32:38;;;;;;;9.10;4.90;;;15.40;73.60;;;;;;6217506;23;20397;-87
2022/08/22 00:35:21;;;;;;;7.67;5.17;;;15.40;74.00;;;;;;6226280;23;20436;-85
2022/08/22 00:38:10;;;;;;;9.43;5.90;;;15.30;75.30;;;;;;6227169;23;20769;-85
2022/08/22 00:40:58;;;;;;;8.43;6.60;;;15.30;76.10;;;;;;6231382;23;20412;-86
2022/08/22 00:44:20;;;;;;;10.63;5.93;;;15.20;78.60;;;;;;6220587;23;20786;-87
2022/08/22 00:47:22;;;;;;;10.93;5.13;;;15.30;78.20;;;;;;5991373;23;20921;-85
2022/08/22 00:50:25;;;;;;;8.03;5.23;;;15.10;77.50;;;;;;6042230;23;20506;-86
2022/08/22 00:53:35;;;;;;;9.10;5.90;;;15.10;77.80;;;;;;6109293;23;20396;-85
2022/08/22 00:56:57;;;;;;;9.17;6.50;;;14.90;80.70;;;;;;6216722;23;20751;-86
2022/08/22 01:03:05;;;;;;;12.70;10.53;;;14.70;83.50;;;;;;6183657;23;20800;-87
2022/08/22 01:06:01;;;;;;;12.23;10.57;;;14.60;85.60;;;;;;6217107;23;20415;-87
2022/08/22 01:09:02;;;;;;;23.40;21.77;;;14.60;86.90;;;;;;6228501;23;20412;-87
2022/08/22 01:12:06;;;;;;;23.90;22.10;;;14.40;89.70;;;;;;6216609;23;20519;-87
2022/08/22 01:14:49;;;;;;;20.83;18.83;;;14.40;90.90;;;;;;6227338;23;20778;-87
2022/08/22 01:17:50;;;;;;;16.50;13.17;;;14.30;91.50;;;;;;6228140;23;20388;-87
2022/08/22 01:20:54;;;;;;;16.47;15.00;;;14.50;90.70;;;;;;6229274;23;20408;-87
2022/08/22 01:23:57;;;;;;;28.77;26.30;;;14.40;90.60;;;;;;6208029;23;20430;-88
2022/08/22 01:27:12;;;;;;;25.97;24.23;;;14.00;90.90;;;;;;6218452;23;20419;-88
2022/08/22 01:30:39;;;;;;;22.17;20.70;;;14.10;91.90;;;;;;6192671;23;20454;-87
2022/08/22 01:33:44;;;;;;;11.90;10.73;;;14.20;92.30;;;;;;6125429;23;20982;-84
2022/08/22 01:36:54;;;;;;;11.40;5.93;;;14.00;90.30;;;;;;6181464;23;20745;-87
2022/08/22 01:40:01;;;;;;;11.77;8.00;;;14.00;86.30;;;;;;6216519;23;20447;-88
2022/08/22 01:42:57;;;;;;;11.83;10.40;;;14.00;88.20;;;;;;6225477;23;20419;-86
2022/08/22 01:45:54;;;;;;;14.53;13.30;;;13.90;90.00;;;;;;6217591;23;20428;-87
2022/08/22 01:48:39;;;;;;;19.63;18.43;;;14.00;90.90;;;;;;6227999;23;20415;-86
2022/08/22 01:51:26;;;;;;;31.40;29.40;;;13.80;91.40;;;;;;6229224;23;20505;-87
2022/08/22 01:54:28;;;;;;;33.83;32.00;;;13.90;92.60;;;;;;6220645;23;20436;-86
2022/08/22 01:57:14;;;;;;;41.23;39.10;;;13.90;93.90;;;;;;6217883;23;20418;-86
2022/08/22 01:59:53;;;;;;;47.57;44.57;;;14.00;94.50;;;;;;6219140;23;20395;-86
2022/08/22 02:02:46;;;;;;;59.20;56.50;;;13.80;94.30;;;;;;6216914;23;20508;-87
2022/08/22 02:05:43;;;;;;;42.80;40.53;;;14.10;95.40;;;;;;6226462;23;20954;-85
2022/08/22 02:08:27;;;;;;;31.40;29.30;;;14.10;94.30;;;;;;6222957;23;20427;-86
2022/08/22 02:11:14;;;;;;;33.23;31.07;;;13.90;93.30;;;;;;6220560;23;20482;-86
2022/08/22 02:13:57;;;;;;;32.40;30.50;;;13.80;93.40;;;;;;6219849;23;20478;-86
2022/08/22 02:16:44;;;;;;;21.80;20.07;;;13.90;93.50;;;;;;6231387;23;20693;-86
2022/08/22 02:19:36;;;;;;;23.27;21.50;;;13.80;92.50;;;;;;6220294;23;20483;-88
2022/08/22 02:25:15;;;;;;;20.60;19.20;;;13.70;91.90;;;;;;6217940;23;20428;-88
2022/08/22 02:28:04;;;;;;;24.50;22.60;;;13.60;92.40;;;;;;6230637;23;20412;-85
2022/08/22 02:30:55;;;;;;;29.60;27.60;;;13.50;92.40;;;;;;6222826;23;20431;-84
2022/08/22 02:33:41;;;;;;;46.00;43.97;;;13.40;93.00;;;;;;6230736;23;20416;-85
2022/08/22 02:36:40;;;;;;;72.70;69.20;;;13.50;94.00;;;;;;6220274;23;20459;-87
2022/08/22 02:39:33;;;;;;;99.13;95.10;;;13.40;94.60;;;;;;6220826;23;20415;-85
2022/08/22 02:42:24;;;;;;;99.17;95.30;;;13.50;95.60;;;;;;6220697;23;20475;-85
2022/08/22 02:45:23;;;;;;;99.93;95.93;;;13.60;95.30;;;;;;6230400;23;20984;-85
2022/08/22 02:48:07;;;;;;;111.43;106.93;;;13.40;96.00;;;;;;6230198;23;20628;-85
2022/08/22 02:50:55;;;;;;;83.27;79.23;;;13.40;96.30;;;;;;6231247;23;20436;-85
2022/08/22 02:53:48;;;;;;;74.03;70.87;;;13.50;95.30;;;;;;6218592;23;20408;-85
2022/08/22 02:56:22;;;;;;;93.10;89.20;;;13.40;95.70;;;;;;6230252;23;20412;-85
2022/08/22 02:59:20;;;;;;;91.37;87.97;;;13.50;95.80;;;;;;6220243;23;20403;-85
2022/08/22 03:02:26;;;;;;;115.53;110.93;;;13.40;96.20;;;;;;6218133;23;20416;-84
2022/08/22 03:05:20;;;;;;;95.40;91.27;;;13.30;96.80;;;;;;6228404;23;20474;-85
2022/08/22 03:11:04;;;;;;;66.60;63.47;;;13.30;96.20;;;;;;6220888;23;20432;-86
2022/08/22 03:13:59;;;;;;;64.47;61.40;;;13.40;95.70;;;;;;6232166;23;20428;-85
2022/08/22 03:16:40;;;;;;;77.80;74.30;;;13.30;95.70;;;;;;6228327;23;20416;-87
2022/08/22 03:19:22;;;;;;;79.60;76.20;;;13.40;95.60;;;;;;6228671;23;20712;-85
2022/08/22 03:22:06;;;;;;;69.63;66.57;;;13.40;95.50;;;;;;6228109;23;20431;-86
2022/08/22 03:24:58;;;;;;;99.33;94.93;;;13.40;95.20;;;;;;6228627;23;21008;-85
2022/08/22 03:27:36;;;;;;;129.43;124.60;;;13.40;96.30;;;;;;6227824;23;20462;-86
2022/08/22 03:30:13;;;;;;;139.43;134.47;;;13.40;96.30;;;;;;6233820;23;20439;-86
2022/08/22 03:33:01;;;;;;;144.53;138.60;;;13.40;96.80;;;;;;6217010;23;20442;-87
2022/08/22 03:35:55;;;;;;;162.10;155.90;;;13.60;97.00;;;;;;6217283;23;20440;-85
2022/08/22 03:38:58;;;;;;;160.50;154.40;;;13.70;97.50;;;;;;6214285;23;20420;-87
2022/08/22 03:42:03;;;;;;;157.43;151.33;;;13.80;97.80;;;;;;6218163;23;20495;-85
2022/08/22 03:45:07;;;;;;;96.47;92.63;;;13.80;97.50;;;;;;6226692;23;20440;-86
2022/08/22 03:48:05;;;;;;;74.80;71.13;;;13.80;95.90;;;;;;6205016;23;20416;-86
2022/08/22 03:51:16;;;;;;;69.47;66.47;;;14.00;95.50;;;;;;6217861;23;20397;-86
2022/08/22 03:54:29;;;;;;;89.47;85.47;;;13.80;95.50;;;;;;6212393;23;20440;-85
2022/08/22 03:57:36;;;;;;;85.47;81.80;;;13.80;96.00;;;;;;6197015;23;20422;-86
2022/08/22 04:00:40;;;;;;;96.60;92.70;;;13.80;96.10;;;;;;6217090;23;20407;-88
2022/08/22 04:03:40;;;;;;;63.67;60.63;;;13.80;96.40;;;;;;6231261;23;20412;-85
2022/08/22 04:06:53;;;;;;;114.10;109.17;;;13.70;95.90;;;;;;6222330;23;20389;-88
2022/08/22 04:09:55;;;;;;;147.17;141.07;;;13.70;97.90;;;;;;6223263;23;20803;-86
2022/08/22 04:13:11;;;;;;;127.20;121.87;;;13.60;98.30;;;;;;6219381;23;20442;-86
2022/08/22 04:16:13;;;;;;;149.67;143.47;;;13.60;98.00;;;;;;6232483;23;20415;-84
2022/08/22 04:19:09;;;;;;;188.97;182.20;;;13.50;98.30;;;;;;6214434;23;20412;-84
2022/08/22 04:21:52;;;;;;;168.17;162.07;;;13.50;98.80;;;;;;6228980;23;20946;-84
2022/08/22 04:24:36;;;;;;;218.27;210.37;;;13.50;99.00;;;;;;6229301;23;20437;-84
2022/08/22 04:27:14;;;;;;;207.70;200.23;;;13.40;99.00;;;;;;6224135;23;20416;-84
2022/08/22 04:29:47;;;;;;;238.40;229.80;;;13.40;99.10;;;;;;6226234;23;20415;-84
2022/08/22 04:32:19;;;;;;;306.13;294.43;;;13.40;99.90;;;;;;6226171;23;20478;-85
2022/08/22 04:35:31;;;;;;;274.30;262.27;;;13.40;99.90;;;;;;6223971;23;20436;-86
2022/08/22 04:38:24;;;;;;;324.40;310.87;;;13.30;99.90;;;;;;6210739;23;20424;-86
2022/08/22 04:41:01;;;;;;;359.00;344.10;;;13.30;99.90;;;;;;6233452;23;20389;-85
2022/08/22 04:43:39;;;;;;;329.83;315.60;;;13.30;99.90;;;;;;6226853;23;20466;-84
2022/08/22 04:46:17;;;;;;;279.40;268.20;;;13.30;99.90;;;;;;6236728;23;20408;-84
2022/08/22 04:48:58;;;;;;;205.80;198.47;;;13.30;99.90;;;;;;6235770;23;20439;-83
2022/08/22 04:51:33;;;;;;;211.33;203.83;;;13.30;99.90;;;;;;6225226;23;20451;-83
2022/08/22 04:54:46;;;;;;;246.17;237.57;;;13.30;99.90;;;;;;6224412;23;20867;-83
2022/08/22 04:57:25;;;;;;;267.57;257.60;;;13.20;99.90;;;;;;6217850;23;20412;-85
2022/08/22 04:59:59;;;;;;;351.33;336.40;;;13.20;99.90;;;;;;6234918;23;20404;-84
2022/08/22 05:02:27;;;;;;;361.63;346.13;;;13.20;99.90;;;;;;6236080;23;20456;-84
2022/08/22 05:05:03;;;;;;;371.77;355.83;;;13.20;99.90;;;;;;6236352;23;20420;-85
2022/08/22 05:07:50;;;;;;;311.93;299.30;;;13.40;99.90;;;;;;6225343;23;20874;-85
2022/08/22 05:10:33;;;;;;;309.13;297.03;;;13.40;99.90;;;;;;6236474;23;20415;-84
2022/08/22 05:13:39;;;;;;;314.63;302.27;;;13.50;99.90;;;;;;6235923;23;20436;-87
2022/08/22 05:16:42;;;;;;;323.80;311.60;;;13.50;99.90;;;;;;6236028;23;20489;-87
2022/08/22 05:30:31;;;;;;;393.97;377.47;;;13.90;99.90;;;;;;5990831;23;20414;-87
2022/08/22 05:36:35;;;;;;;73.10;69.63;;;14.50;99.90;;;;;;6013178;23;20406;-86
2022/08/22 05:39:07;;;;;;;57.43;54.50;;;14.60;99.90;;;;;;6022668;23;20406;-86
2022/08/22 05:41:39;;;;;;;67.83;63.80;;;14.60;99.90;;;;;;6173169;23;20426;-86
2022/08/22 05:44:21;;;;;;;64.23;60.23;;;14.70;99.90;;;;;;6218892;23;20435;-85
2022/08/22 05:47:18;;;;;;;61.87;59.17;;;14.80;99.90;;;;;;6232132;23;20381;-84
2022/08/22 05:50:16;;;;;;;;;;;;;;;;;;;;;
2022/08/22 05:52:59;;;;;;;61.77;58.67;;;15.00;99.70;;;;;;6218265;23;20435;-81
2022/08/22 05:55:31;;;;;;;42.83;40.40;;;15.10;99.20;;;;;;6217090;23;20457;-82
2022/08/22 05:58:30;;;;;;;35.77;32.87;;;15.30;98.90;;;;;;6217121;23;20405;-81
2022/08/22 06:01:08;;;;;;;33.80;31.13;;;15.50;98.10;;;;;;6217183;23;20416;-80
2022/08/22 06:03:39;;;;;;;31.20;29.10;;;15.70;97.10;;;;;;6218925;23;20873;-81
2022/08/22 06:06:13;;;;;;;32.70;30.50;;;15.70;96.90;;;;;;6219804;23;20396;-81
2022/08/22 06:08:46;;;;;;;33.23;30.93;;;15.70;97.20;;;;;;6218959;23;20389;-80
2022/08/22 06:11:19;;;;;;;40.87;38.37;;;15.70;97.10;;;;;;6217830;23;20393;-82
2022/08/22 06:13:53;;;;;;;38.37;36.03;;;15.70;97.10;;;;;;6218338;23;20523;-81
2022/08/22 06:16:30;;;;;;;52.93;49.73;;;15.80;97.20;;;;;;6228544;23;20409;-82
2022/08/22 06:18:58;;;;;;;56.70;53.93;;;15.90;97.40;;;;;;6231024;23;20392;-82
2022/08/22 06:21:30;;;;;;;49.17;46.70;;;15.80;97.50;;;;;;6220547;23;20415;-82
2022/08/22 06:24:01;;;;;;;58.87;55.90;;;15.80;97.80;;;;;;6220805;23;20437;-81
2022/08/22 06:26:38;;;;;;;76.43;72.77;;;15.90;97.90;;;;;;6229218;23;20423;-82
2022/08/22 06:29:07;;;;;;;70.13;66.57;;;15.90;97.30;;;;;;6230523;23;20409;-81
2022/08/22 06:31:41;;;;;;;42.83;40.47;;;16.10;96.80;;;;;;6220164;23;20432;-82
2022/08/22 06:34:11;;;;;;;52.20;48.50;;;16.30;96.00;;;;;;6219600;23;20766;-82
2022/08/22 06:36:42;;;;;;;83.67;79.33;;;16.40;95.60;;;;;;6218114;23;20392;-82
2022/08/22 06:49:43;;;;;;;17.47;10.30;;;17.50;92.30;;;;;;6213342;23;20410;-81
2022/08/22 06:59:50;;;;;;;;;;;;;;;;;;;;;
2022/08/22 07:09:36;;;;;;;12.47;8.03;;;18.90;85.10;;;;;;6181524;23;20401;-84
2022/08/22 07:29:01;;;;;;;12.27;7.07;;;21.00;64.10;;;;;;6108864;23;20441;-80
2022/08/22 07:35:22;;;;;;;12.53;6.30;;;21.40;57.00;;;;;;6165629;23;20792;-86
2022/08/22 07:38:12;;;;;;;16.30;6.93;;;21.70;57.10;;;;;;6229005;23;20467;-85
2022/08/22 07:40:47;;;;;;;12.67;5.87;;;22.50;56.40;;;;;;6221536;23;20187;-83
2022/08/22 07:43:33;;;;;;;13.50;6.90;;;22.80;55.60;;;;;;6228489;23;20566;-83
2022/08/22 07:46:17;;;;;;;13.93;4.53;;;23.20;52.40;;;;;;6229238;23;20422;-84
2022/08/22 07:48:50;;;;;;;12.00;4.97;;;23.30;47.40;;;;;;6233561;23;20413;-83
2022/08/22 07:51:26;;;;;;;13.70;4.40;;;23.40;45.10;;;;;;6224698;23;20410;-84
2022/08/22 07:54:13;;;;;;;11.73;5.00;;;23.60;44.20;;;;;;6231810;23;20438;-84
2022/08/22 07:56:56;;;;;;;7.83;3.93;;;24.00;45.30;;;;;;6229262;23;20429;-83
2022/08/22 08:02:38;;;;;;;6.90;3.40;;;24.20;39.20;;;;;;6217626;23;20391;-87
2022/08/22 08:05:06;;;;;;;9.40;3.53;;;24.40;37.20;;;;;;6228594;23;20445;-86
2022/08/22 08:07:48;;;;;;;10.43;3.17;;;24.30;35.20;;;;;;6219954;23;20470;-86
2022/08/22 08:10:22;;;;;;;14.40;3.80;;;24.50;32.80;;;;;;6229268;23;20414;-87
2022/08/22 08:12:57;;;;;;;7.67;2.90;;;24.70;32.50;;;;;;6229541;23;20442;-87
2022/08/22 08:15:28;;;;;;;14.57;3.97;;;24.70;28.90;;;;;;6229320;23;20422;-85
2022/08/22 08:18:00;;;;;;;10.20;3.80;;;24.80;28.70;;;;;;6219383;23;20499;-85
2022/08/22 08:20:30;;;;;;;12.10;2.87;;;25.60;27.00;;;;;;6229532;23;20499;-86
2022/08/22 08:23:08;;;;;;;11.53;3.17;;;26.10;24.20;;;;;;6229763;23;20408;-87
2022/08/22 08:28:53;;;;;;;19.13;3.37;;;27.30;19.80;;;;;;6209149;23;20390;-87
2022/08/22 08:31:30;;;;;;;8.77;2.63;;;27.40;16.10;;;;;;6229996;23;20473;-84
2022/08/22 08:34:03;;;;;;;7.87;3.30;;;27.60;14.30;;;;;;6230211;23;20489;-87
2022/08/22 08:36:41;;;;;;;10.40;3.30;;;28.10;11.50;;;;;;6220778;23;20774;-85
2022/08/22 08:39:17;;;;;;;14.57;3.70;;;27.90;10.40;;;;;;6220631;23;20426;-84
2022/08/22 08:42:05;;;;;;;9.77;3.20;;;27.80;8.50;;;;;;6230369;23;20407;-85
2022/08/22 08:45:15;;;;;;;12.30;4.00;;;28.00;8.50;;;;;;6230244;23;20462;-85
2022/08/22 08:48:06;;;;;;;9.00;3.40;;;28.10;7.00;;;;;;6194331;23;20390;-84
2022/08/22 08:51:01;;;;;;;11.90;3.50;;;28.00;5.80;;;;;;6230826;23;20411;-85
2022/08/22 08:54:04;;;;;;;11.80;4.00;;;28.00;4.70;;;;;;6209952;23;20439;-85
2022/08/22 08:56:58;;;;;;;10.77;3.80;;;28.50;3.90;;;;;;6217407;23;20386;-85
2022/08/22 08:59:48;;;;;;;6.90;2.83;;;28.20;4.30;;;;;;6229906;23;20755;-85
2022/08/22 09:03:01;;;;;;;11.43;3.50;;;28.90;3.10;;;;;;6230904;23;20399;-84
2022/08/22 09:06:02;;;;;;;9.57;2.80;;;28.80;2.30;;;;;;6219051;23;20435;-86
2022/08/22 09:09:03;;;;;;;7.97;2.47;;;28.70;2.80;;;;;;6220489;23;20450;-86
2022/08/22 09:12:09;;;;;;;8.00;2.80;;;28.80;1.10;;;;;;6218322;23;20415;-86
2022/08/22 09:17:36;;;;;;;6.40;2.20;;;29.30;1.00;;;;;;6281338;22;20398;-85
2022/08/22 09:20:40;;;;;;;7.13;2.53;;;29.60;1.00;;;;;;6278202;22;20931;-83
2022/08/22 09:23:35;;;;;;;7.93;2.60;;;29.60;1.00;;;;;;6281301;22;20386;-83
2022/08/22 09:26:08;;;;;;;10.63;2.50;;;28.90;1.00;;;;;;6250263;23;20870;-86
2022/08/22 09:28:40;;;;;;;10.43;2.40;;;28.70;1.00;;;;;;6252572;23;20402;-86
2022/08/22 09:31:38;;;;;;;8.07;1.70;;;28.90;1.00;;;;;;6250807;23;20927;-85
2022/08/22 09:34:13;;;;;;;6.30;1.63;;;28.70;1.00;;;;;;6201491;22;20466;-86
2022/08/22 09:36:56;;;;;;;8.60;2.07;;;28.70;1.00;;;;;;6249911;23;20417;-85
2022/08/22 09:39:32;;;;;;;7.03;2.07;;;29.40;1.00;;;;;;6250581;23;20424;-87
2022/08/22 09:42:34;;;;;;;13.57;1.80;;;29.80;1.00;;;;;;6250891;23;20405;-87
2022/08/22 09:45:45;;;;;;;6.17;1.83;;;29.90;1.00;;;;;;6230897;22;20450;-85
2022/08/22 09:48:41;;;;;;;6.77;2.10;;;30.00;1.00;;;;;;6250812;23;20395;-85
2022/08/22 09:51:43;;;;;;;5.43;2.00;;;29.80;1.00;;;;;;6225394;23;20468;-85
2022/08/22 09:54:43;;;;;;;7.90;2.00;;;30.00;1.00;;;;;;6242725;22;20473;-85
2022/08/22 09:57:30;;;;;;;7.47;2.67;;;30.00;1.00;;;;;;6238037;23;20415;-85
2022/08/22 10:00:20;;;;;;;7.40;1.90;;;29.90;1.00;;;;;;6261872;23;20373;-87
2022/08/22 10:03:11;;;;;;;6.77;1.90;;;31.10;1.00;;;;;;6262354;23;20410;-86
2022/08/22 10:06:00;;;;;;;9.67;2.33;;;31.30;1.00;;;;;;6252206;23;20551;-86
2022/08/22 10:09:06;;;;;;;13.23;1.90;;;31.60;1.00;;;;;;6262887;23;20407;-85
2022/08/22 10:11:44;;;;;;;6.10;2.07;;;32.20;1.00;;;;;;6263216;23;20426;-86
2022/08/22 10:14:17;;;;;;;5.90;1.77;;;32.60;1.00;;;;;;6262561;22;20438;-86
2022/08/22 10:17:01;;;;;;;6.23;2.07;;;32.30;1.00;;;;;;6262235;23;20422;-85
2022/08/22 10:19:36;;;;;;;6.33;1.97;;;31.90;1.00;;;;;;6262832;23;20751;-86
2022/08/22 10:22:26;;;;;;;8.93;1.90;;;31.80;1.00;;;;;;6262425;23;20421;-85
2022/08/22 10:42:09;;;;;;;10.80;2.00;;;28.70;1.00;;;;;;6125916;23;20731;-86
2022/08/22 10:44:48;;;;;;;5.53;2.10;;;28.80;1.00;;;;;;6137783;23;20434;-87
2022/08/22 10:47:23;;;;;;;9.00;2.70;;;29.10;1.00;;;;;;6237366;23;20415;-85
2022/08/22 10:49:53;;;;;;;9.40;2.00;;;29.50;1.00;;;;;;6251301;23;20456;-86
2022/08/22 10:52:28;;;;;;;6.83;2.07;;;29.00;1.00;;;;;;6261788;23;20380;-88
2022/08/22 10:55:01;;;;;;;8.40;2.13;;;29.50;1.00;;;;;;6251572;22;20461;-86
2022/08/22 10:58:03;;;;;;;8.40;2.43;;;30.40;1.00;;;;;;6261510;23;20510;-86
2022/08/22 11:00:53;;;;;;;8.87;1.93;;;31.00;1.00;;;;;;6251692;23;20395;-86
2022/08/22 11:03:27;;;;;;;9.50;2.40;;;31.10;1.00;;;;;;6261395;22;20430;-86
2022/08/22 11:06:01;;;;;;;5.73;1.93;;;31.60;1.00;;;;;;6261158;23;20743;-86
2022/08/22 11:09:10;;;;;;;6.67;1.80;;;32.30;1.00;;;;;;6225258;23;20458;-86
2022/08/22 11:11:44;;;;;;;9.27;2.30;;;32.70;1.00;;;;;;6251969;23;20415;-86
2022/08/22 11:14:54;;;;;;;7.70;2.60;;;33.00;1.00;;;;;;6251489;22;20503;-84
2022/08/22 11:17:51;;;;;;;6.63;1.80;;;32.60;1.00;;;;;;6168866;23;20413;-85
2022/08/22 11:20:36;;;;;;;6.73;1.77;;;31.80;1.00;;;;;;6159197;23;20589;-85
2022/08/22 11:23:30;;;;;;;5.53;1.80;;;32.00;1.00;;;;;;6241853;23;20448;-85
2022/08/22 11:26:08;;;;;;;5.40;1.80;;;32.30;1.00;;;;;;6251336;23;20437;-86
2022/08/22 11:29:12;;;;;;;7.97;2.03;;;33.40;1.00;;;;;;6262256;23;20437;-85
2022/08/22 11:31:53;;;;;;;7.30;2.00;;;33.60;1.00;;;;;;6240178;23;20494;-86
2022/08/22 11:34:36;;;;;;;6.33;1.97;;;32.70;1.00;;;;;;6263102;22;20438;-83
2022/08/22 11:37:11;;;;;;;6.83;2.43;;;31.70;1.00;;;;;;6263138;23;20407;-84
2022/08/22 11:39:47;;;;;;;4.80;2.00;;;31.60;1.00;;;;;;6223571;23;20419;-85
2022/08/22 11:42:24;;;;;;;7.33;1.97;;;30.40;1.00;;;;;;6262971;23;20492;-85
2022/08/22 11:45:03;;;;;;;6.07;1.70;;;30.80;1.00;;;;;;6263248;22;20405;-86
2022/08/22 11:47:46;;;;;;;11.50;2.10;;;30.60;1.00;;;;;;6262342;23;20498;-85
2022/08/22 11:50:33;;;;;;;9.20;2.30;;;30.70;1.00;;;;;;6264083;23;20437;-86
2022/08/22 11:53:27;;;;;;;8.73;2.03;;;30.60;1.00;;;;;;6264365;23;20401;-87
2022/08/22 11:56:30;;;;;;;8.23;2.27;;;30.40;1.00;;;;;;6263819;23;20418;-87
2022/08/22 11:59:05;;;;;;;6.00;2.07;;;30.30;1.00;;;;;;6262039;23;20422;-85
2022/08/22 12:01:51;;;;;;;7.00;2.47;;;29.60;1.00;;;;;;6262602;23;20471;-85
2022/08/22 12:04:34;;;;;;;6.63;2.03;;;29.60;1.00;;;;;;6261930;22;20507;-86
2022/08/22 12:07:23;;;;;;;8.60;2.10;;;29.70;1.00;;;;;;6261517;23;20422;-85
2022/08/22 12:10:14;;;;;;;7.57;2.23;;;29.30;1.00;;;;;;6249933;23;20410;-84
2022/08/22 12:13:12;;;;;;;9.17;2.80;;;28.80;1.00;;;;;;6249215;23;20407;-85
2022/08/22 12:15:45;;;;;;;7.33;2.47;;;28.80;1.00;;;;;;6249318;23;20423;-81
2022/08/22 12:18:33;;;;;;;8.67;1.90;;;29.10;1.00;;;;;;6246497;23;20398;-81
2022/08/22 12:21:54;;;;;;;11.70;2.97;;;29.30;1.00;;;;;;6245997;23;20377;-82
2022/08/22 12:24:32;;;;;;;6.63;2.20;;;29.30;1.00;;;;;;6245706;22;20434;-81
2022/08/22 12:27:18;;;;;;;8.83;3.23;;;29.60;1.00;;;;;;6246334;23;20402;-82
2022/08/22 12:29:55;;;;;;;7.57;2.60;;;29.70;1.00;;;;;;6246239;23;20402;-82
2022/08/22 12:32:49;;;;;;;7.60;2.20;;;30.30;1.00;;;;;;6246922;23;20369;-83
2022/08/22 12:35:30;;;;;;;7.13;2.20;;;30.40;1.00;;;;;;6246192;22;20423;-83
2022/08/22 12:38:05;;;;;;;8.50;2.60;;;29.80;1.00;;;;;;6246642;23;20397;-83
2022/08/22 12:40:46;;;;;;;9.80;2.30;;;30.10;1.00;;;;;;6247713;23;20443;-83
2022/08/22 12:43:39;;;;;;;7.57;2.33;;;30.10;1.00;;;;;;6247540;22;20474;-85
2022/08/22 12:46:30;;;;;;;8.27;2.73;;;29.80;1.00;;;;;;6262364;23;20395;-85
2022/08/22 12:49:40;;;;;;;6.07;2.20;;;29.80;1.00;;;;;;6262802;23;20411;-85
2022/08/22 12:55:40;;;;;;;10.47;2.97;;;29.90;1.00;;;;;;6247984;22;20413;-85
2022/08/22 12:58:37;;;;;;;17.40;2.50;;;30.70;1.00;;;;;;6262294;23;20761;-86
2022/08/22 13:04:32;;;;;;;6.47;2.27;;;29.90;1.00;;;;;;6249471;22;20493;-85
2022/08/22 13:07:23;;;;;;;7.33;2.20;;;30.00;1.00;;;;;;6205220;23;20500;-85
2022/08/22 13:10:06;;;;;;;7.60;2.00;;;30.10;1.00;;;;;;6249624;23;20418;-85
2022/08/22 13:12:50;;;;;;;13.27;2.87;;;30.00;1.00;;;;;;6262445;23;20430;-85
2022/08/22 13:15:32;;;;;;;6.80;1.97;;;30.30;1.00;;;;;;6261087;22;20794;-85
2022/08/22 13:18:07;;;;;;;10.73;2.30;;;31.00;1.00;;;;;;6261083;23;20492;-85
2022/08/22 13:21:02;;;;;;;8.23;2.57;;;30.90;1.00;;;;;;6251837;23;20741;-85
2022/08/22 13:23:42;;;;;;;8.23;2.73;;;30.20;1.00;;;;;;6251635;22;20438;-85
2022/08/22 13:26:17;;;;;;;10.40;2.57;;;30.10;1.00;;;;;;6262863;23;20417;-86
2022/08/22 13:31:53;;;;;;;8.60;2.20;;;30.90;1.00;;;;;;6255049;23;20407;-85
2022/08/22 13:34:37;;;;;;;7.50;1.70;;;31.20;1.00;;;;;;6264611;22;20438;-85
2022/08/22 13:37:31;;;;;;;8.60;2.60;;;31.90;1.00;;;;;;6263792;23;20388;-85
2022/08/22 13:40:08;;;;;;;8.53;2.00;;;31.80;1.00;;;;;;6263878;23;20396;-85
2022/08/22 13:45:38;;;;;;;6.97;2.27;;;31.10;1.00;;;;;;6252854;22;20430;-86
2022/08/22 13:48:11;;;;;;;9.27;3.00;;;30.80;1.00;;;;;;6263954;23;20486;-84
2022/08/22 13:51:05;;;;;;;6.73;2.20;;;31.40;1.00;;;;;;6258659;23;20391;-86
2022/08/22 13:53:40;;;;;;;8.53;2.63;;;31.40;1.00;;;;;;6236291;22;20538;-87
2022/08/22 13:56:13;;;;;;;6.67;2.27;;;31.80;1.00;;;;;;6259126;23;20384;-86
2022/08/22 13:58:43;;;;;;;8.23;2.17;;;31.70;1.00;;;;;;6261082;23;20401;-86
2022/08/22 14:01:18;;;;;;;7.07;2.07;;;32.00;1.00;;;;;;6260857;23;20382;-85
2022/08/22 14:03:49;;;;;;;9.57;3.30;;;31.70;1.00;;;;;;6257401;22;20431;-86
2022/08/22 14:06:35;;;;;;;9.43;2.07;;;31.90;1.00;;;;;;6256554;23;20418;-85
2022/08/22 14:09:11;;;;;;;7.43;2.53;;;31.40;1.00;;;;;;6245827;23;20391;-84
2022/08/22 14:11:43;;;;;;;8.87;2.20;;;32.10;1.00;;;;;;6247586;23;20373;-84
2022/08/22 14:14:11;;;;;;;9.63;2.50;;;32.70;1.00;;;;;;6245240;22;20428;-84
2022/08/22 14:16:44;;;;;;;8.00;2.60;;;32.70;1.00;;;;;;6247069;23;20416;-85
2022/08/22 14:19:24;;;;;;;6.53;2.27;;;33.90;1.00;;;;;;6246178;23;20427;-84
2022/08/22 14:21:53;;;;;;;7.43;2.40;;;34.20;1.00;;;;;;6245719;23;20904;-84
2022/08/22 14:24:22;;;;;;;7.50;2.47;;;34.60;1.00;;;;;;6246029;22;20427;-85
2022/08/22 14:27:02;;;;;;;6.63;2.30;;;35.60;1.00;;;;;;6255645;23;20377;-84
2022/08/22 14:29:43;;;;;;;6.77;2.00;;;35.40;1.00;;;;;;6256971;23;20382;-85
2022/08/22 14:32:49;;;;;;;5.60;2.20;;;34.20;1.00;;;;;;6256094;23;20415;-85
2022/08/22 14:35:21;;;;;;;10.57;2.83;;;34.10;1.00;;;;;;6245154;22;20761;-85
2022/08/22 14:37:53;;;;;;;12.20;3.50;;;33.60;1.00;;;;;;6245750;23;20369;-85
2022/08/22 14:40:24;;;;;;;10.10;2.60;;;33.20;1.00;;;;;;6247480;23;20374;-85
2022/08/22 14:42:58;;;;;;;8.00;2.40;;;32.40;1.00;;;;;;6246086;23;20381;-85
2022/08/22 14:45:32;;;;;;;8.60;2.77;;;32.10;1.00;;;;;;6250166;22;20441;-85
2022/08/22 14:48:02;;;;;;;7.87;2.87;;;32.50;1.00;;;;;;6257270;23;20370;-85
2022/08/22 14:50:37;;;;;;;12.23;1.90;;;33.10;1.00;;;;;;6257308;23;20406;-85
2022/08/22 14:53:06;;;;;;;8.67;2.70;;;34.00;1.00;;;;;;6245822;23;20877;-85
2022/08/22 14:55:33;;;;;;;7.23;2.53;;;35.60;1.00;;;;;;6245997;23;20442;-85
2022/08/22 14:58:06;;;;;;;9.20;2.30;;;37.30;1.00;;;;;;6246066;23;20735;-84
2022/08/22 15:00:36;;;;;;;8.00;2.70;;;37.60;1.00;;;;;;6244111;23;20399;-84
2022/08/22 15:03:14;;;;;;;5.40;1.90;;;37.50;1.00;;;;;;6245866;23;20370;-84
2022/08/22 15:05:45;;;;;;;10.53;2.93;;;37.50;1.00;;;;;;6245638;23;20406;-84
2022/08/22 15:08:19;;;;;;;6.40;2.27;;;37.40;1.00;;;;;;6245430;23;20392;-85
2022/08/22 15:10:46;;;;;;;9.40;2.10;;;37.50;1.00;;;;;;6245643;23;20394;-85
2022/08/22 15:13:22;;;;;;;8.20;2.90;;;36.70;1.00;;;;;;6244813;22;20411;-84
2022/08/22 15:15:51;;;;;;;6.13;2.50;;;37.00;1.00;;;;;;6247870;23;20413;-81
2022/08/22 15:18:32;;;;;;;7.77;2.47;;;36.60;1.00;;;;;;6255650;23;20390;-81
2022/08/22 15:21:50;;;;;;;7.90;2.17;;;35.30;1.00;;;;;;6250243;23;20515;-85
2022/08/22 15:24:55;;;;;;;9.10;2.37;;;33.60;1.00;;;;;;6260588;22;20498;-86
2022/08/22 15:27:27;;;;;;;7.60;2.40;;;32.70;1.00;;;;;;6245593;23;20401;-85
2022/08/22 15:29:58;;;;;;;7.47;3.00;;;31.70;1.00;;;;;;6260432;23;20416;-86
2022/08/22 15:32:28;;;;;;;9.40;2.60;;;31.40;1.00;;;;;;6251335;23;20422;-87
2022/08/22 15:35:06;;;;;;;10.63;2.70;;;31.00;1.00;;;;;;6250648;22;20449;-86
2022/08/22 15:37:52;;;;;;;7.00;2.10;;;30.80;1.00;;;;;;6251410;23;20478;-86
2022/08/22 15:40:34;;;;;;;7.73;2.20;;;30.50;1.00;;;;;;6251865;23;20370;-86
2022/08/22 15:43:19;;;;;;;10.53;2.80;;;30.30;1.00;;;;;;6251416;23;20366;-86
2022/08/22 15:45:50;;;;;;;8.73;2.40;;;29.90;1.00;;;;;;6250630;23;20395;-86
2022/08/22 15:48:37;;;;;;;7.67;2.53;;;29.50;1.00;;;;;;6251285;23;20407;-86
2022/08/22 15:54:56;;;;;;;9.83;2.47;;;29.20;1.00;;;;;;6241675;22;20435;-86
2022/08/22 15:58:14;;;;;;;7.57;2.23;;;29.00;1.00;;;;;;6255673;23;20411;-86
2022/08/22 16:01:27;;;;;;;9.10;2.57;;;29.20;1.00;;;;;;6121384;23;20423;-86
2022/08/22 16:04:20;;;;;;;;;;;;;;;;;;;;;
2022/08/22 16:13:43;;;;;;;6.57;2.23;;;29.70;1.00;;;;;;6245959;22;20654;-85
2022/08/22 16:23:17;;;;;;;6.70;1.87;;;28.80;1.00;;;;;;6209440;22;20389;-81
2022/08/22 16:26:08;;;;;;;6.63;2.10;;;28.60;1.00;;;;;;6244574;23;20403;-81
2022/08/22 16:28:47;;;;;;;6.83;2.40;;;28.50;1.00;;;;;;6245780;23;20402;-82
2022/08/22 16:31:19;;;;;;;8.47;2.27;;;28.40;1.00;;;;;;6246516;23;20395;-81